AFR53LG GMMX-LFPG
Flight info
| Callsign | AFR53LG |
|---|---|
| Flight time | 4h 4m |
| Altitude | 36000 |
| Route | OBOGA4D OBOGA UG850 VALBA UZ801 TOLSI UG5 KORIS DCT SVL DCT HIJ DCT PARKA DCT TLD DCT SIE DCT EDIGO DCT DGO L176 LUSEM DCT LULUT DCT POI DCT PEPAX UT182 KEPER KEPER9E |
| Aircraft | A321/M-SDE3FGHIRWY/LB1 |
Departure
| Time | 2026-05-01 07:48 |
|---|---|
| Airport | Marrakesh Menara Airport (GMMX) |
Arrival
| Time | 2026-05-01 11:53 |
|---|---|
| Airport | Charles de Gaulle International Airport (LFPG) |
| Time | Latitude | Longitude | Altitude | Speed | Heading |
|---|---|---|---|---|---|
| 2026-05-01 07:23 | 31.60129 | -8.02307 | 1555 ft | 0 kts | 276° |
| 2026-05-01 07:31 | 31.60108 | -8.02238 | 1555 ft | 4 kts | 317° |
| 2026-05-01 07:32 | 31.60082 | -8.02225 | 1555 ft | 0 kts | 6° |
| 2026-05-01 07:44 | 31.60083 | -8.02225 | 1555 ft | 0 kts | 6° |
| 2026-05-01 07:44 | 31.60138 | -8.02219 | 1555 ft | 10 kts | 5° |
| 2026-05-01 07:45 | 31.60217 | -8.02211 | 1555 ft | 12 kts | 5° |
| 2026-05-01 07:45 | 31.60308 | -8.02201 | 1555 ft | 14 kts | 5° |
| 2026-05-01 07:45 | 31.60387 | -8.02182 | 1554 ft | 12 kts | 17° |
| 2026-05-01 07:45 | 31.60473 | -8.02169 | 1554 ft | 13 kts | 9° |
| 2026-05-01 07:46 | 31.60534 | -8.02160 | 1555 ft | 6 kts | 352° |
| 2026-05-01 07:46 | 31.60561 | -8.02210 | 1555 ft | 9 kts | 280° |
| 2026-05-01 07:46 | 31.60564 | -8.02238 | 1555 ft | 0 kts | 276° |
| 2026-05-01 07:47 | 31.60577 | -8.02375 | 1554 ft | 49 kts | 276° |
| 2026-05-01 07:47 | 31.60633 | -8.03040 | 1551 ft | 112 kts | 276° |
| 2026-05-01 07:48 | 31.60808 | -8.05014 | 1670 ft | 163 kts | 275° |
| 2026-05-01 07:48 | 31.60907 | -8.06281 | 2265 ft | 156 kts | 276° |
| 2026-05-01 07:48 | 31.61029 | -8.07597 | 2617 ft | 167 kts | 276° |
| 2026-05-01 07:49 | 31.61160 | -8.08968 | 3098 ft | 172 kts | 276° |
| 2026-05-01 07:49 | 31.61426 | -8.11980 | 3875 ft | 198 kts | 276° |
| 2026-05-01 07:49 | 31.61573 | -8.13643 | 4347 ft | 213 kts | 276° |
| 2026-05-01 07:50 | 31.61732 | -8.15442 | 4932 ft | 231 kts | 276° |
| 2026-05-01 07:50 | 31.63310 | -8.18862 | 6251 ft | 255 kts | 328° |
| 2026-05-01 07:50 | 31.64982 | -8.19531 | 7091 ft | 258 kts | 356° |
| 2026-05-01 07:51 | 31.66747 | -8.19172 | 7898 ft | 262 kts | 25° |
| 2026-05-01 07:51 | 31.68159 | -8.17845 | 8664 ft | 266 kts | 54° |
| 2026-05-01 07:51 | 31.68877 | -8.15836 | 9450 ft | 270 kts | 80° |
| 2026-05-01 07:52 | 31.69361 | -8.11400 | 10951 ft | 279 kts | 83° |
| 2026-05-01 07:52 | 31.69613 | -8.09119 | 11664 ft | 285 kts | 82° |
| 2026-05-01 07:52 | 31.69889 | -8.06799 | 12391 ft | 290 kts | 81° |
| 2026-05-01 07:53 | 31.70523 | -8.02042 | 13840 ft | 300 kts | 80° |
| 2026-05-01 07:53 | 31.70971 | -7.99633 | 14462 ft | 304 kts | 68° |
| 2026-05-01 07:53 | 31.72026 | -7.97470 | 14920 ft | 313 kts | 49° |
| 2026-05-01 07:53 | 31.73479 | -7.95472 | 15224 ft | 331 kts | 45° |
| 2026-05-01 07:54 | 31.76717 | -7.91170 | 15775 ft | 371 kts | 46° |
| 2026-05-01 07:55 | 31.82046 | -7.83835 | 17052 ft | 406 kts | 47° |
| 2026-05-01 07:55 | 31.85804 | -7.78803 | 18341 ft | 413 kts | 44° |
| 2026-05-01 07:56 | 31.91664 | -7.71222 | 20003 ft | 424 kts | 44° |
| 2026-05-01 07:56 | 31.95675 | -7.66038 | 21089 ft | 432 kts | 44° |
| 2026-05-01 07:57 | 31.97708 | -7.63411 | 21625 ft | 436 kts | 44° |
| 2026-05-01 07:57 | 32.01823 | -7.58069 | 22725 ft | 444 kts | 44° |
| 2026-05-01 07:58 | 32.06213 | -7.52919 | 23758 ft | 445 kts | 31° |
| 2026-05-01 07:58 | 32.11810 | -7.50137 | 24574 ft | 435 kts | 4° |
| 2026-05-01 07:59 | 32.17819 | -7.49943 | 25420 ft | 434 kts | 354° |
| 2026-05-01 07:59 | 32.23904 | -7.50058 | 26276 ft | 439 kts | 354° |
| 2026-05-01 08:00 | 32.36272 | -7.50150 | 27876 ft | 449 kts | 354° |
| 2026-05-01 08:01 | 32.45736 | -7.50210 | 29007 ft | 457 kts | 354° |
| 2026-05-01 08:01 | 32.48923 | -7.50231 | 29371 ft | 459 kts | 354° |
| 2026-05-01 08:01 | 32.52115 | -7.50250 | 29796 ft | 459 kts | 354° |
| 2026-05-01 08:02 | 32.58483 | -7.50289 | 30700 ft | 456 kts | 354° |
| 2026-05-01 08:02 | 32.61657 | -7.50310 | 31069 ft | 455 kts | 354° |
| 2026-05-01 08:03 | 32.67977 | -7.50372 | 31845 ft | 453 kts | 353° |
| 2026-05-01 08:03 | 32.71128 | -7.50398 | 32220 ft | 453 kts | 353° |
| 2026-05-01 08:03 | 32.77422 | -7.50429 | 32949 ft | 451 kts | 353° |
| 2026-05-01 08:04 | 32.83696 | -7.50464 | 33637 ft | 450 kts | 353° |
| 2026-05-01 08:04 | 32.89949 | -7.50505 | 34249 ft | 449 kts | 352° |
| 2026-05-01 08:05 | 32.96190 | -7.50541 | 34762 ft | 448 kts | 352° |
| 2026-05-01 08:05 | 32.99302 | -7.50558 | 35027 ft | 447 kts | 352° |
| 2026-05-01 08:05 | 33.02410 | -7.50576 | 35271 ft | 446 kts | 352° |
| 2026-05-01 08:06 | 33.08613 | -7.50612 | 35737 ft | 445 kts | 352° |
| 2026-05-01 08:06 | 33.14801 | -7.49660 | 36133 ft | 461 kts | 6° |
| 2026-05-01 08:07 | 33.21002 | -7.47601 | 36204 ft | 462 kts | 7° |
| 2026-05-01 08:08 | 33.30277 | -7.44534 | 36178 ft | 461 kts | 7° |
| 2026-05-01 08:09 | 33.42658 | -7.40496 | 36172 ft | 461 kts | 7° |
| 2026-05-01 08:09 | 33.48846 | -7.38467 | 36170 ft | 461 kts | 7° |
| 2026-05-01 08:10 | 33.61226 | -7.34411 | 36151 ft | 461 kts | 6° |
| 2026-05-01 08:11 | 33.73639 | -7.30318 | 36146 ft | 461 kts | 6° |
| 2026-05-01 08:12 | 33.82909 | -7.27258 | 36153 ft | 460 kts | 6° |
| 2026-05-01 08:13 | 33.92170 | -7.24194 | 36168 ft | 460 kts | 6° |
| 2026-05-01 08:13 | 34.01414 | -7.21134 | 36190 ft | 459 kts | 6° |
| 2026-05-01 08:14 | 34.07575 | -7.19086 | 36188 ft | 459 kts | 6° |
| 2026-05-01 08:14 | 34.13735 | -7.17031 | 36194 ft | 459 kts | 6° |
| 2026-05-01 08:15 | 34.22968 | -7.13954 | 36196 ft | 459 kts | 6° |
| 2026-05-01 08:16 | 34.29123 | -7.11903 | 36187 ft | 459 kts | 6° |
| 2026-05-01 08:16 | 34.35271 | -7.09844 | 36192 ft | 459 kts | 6° |
| 2026-05-01 08:17 | 34.41424 | -7.07780 | 36197 ft | 458 kts | 6° |
| 2026-05-01 08:17 | 34.47527 | -7.05733 | 36190 ft | 458 kts | 6° |
| 2026-05-01 08:18 | 34.53674 | -7.03667 | 36190 ft | 458 kts | 6° |
| 2026-05-01 08:19 | 34.65751 | -6.98090 | 36192 ft | 473 kts | 18° |
| 2026-05-01 08:19 | 34.71574 | -6.94472 | 36184 ft | 473 kts | 18° |
| 2026-05-01 08:20 | 34.77441 | -6.90862 | 36185 ft | 472 kts | 18° |
| 2026-05-01 08:20 | 34.83305 | -6.87261 | 36187 ft | 472 kts | 18° |
| 2026-05-01 08:21 | 34.89158 | -6.83654 | 36185 ft | 472 kts | 18° |
| 2026-05-01 08:21 | 34.95015 | -6.80040 | 36181 ft | 471 kts | 17° |
| 2026-05-01 08:22 | 35.00867 | -6.76428 | 36183 ft | 471 kts | 17° |
| 2026-05-01 08:22 | 35.06711 | -6.72812 | 36190 ft | 471 kts | 17° |
| 2026-05-01 08:23 | 35.12556 | -6.69188 | 36179 ft | 471 kts | 17° |
| 2026-05-01 08:23 | 35.18393 | -6.65568 | 36191 ft | 470 kts | 17° |
| 2026-05-01 08:24 | 35.24219 | -6.61943 | 36186 ft | 470 kts | 17° |
| 2026-05-01 08:24 | 35.30048 | -6.58312 | 36186 ft | 469 kts | 17° |
| 2026-05-01 08:25 | 35.35869 | -6.54681 | 36183 ft | 469 kts | 17° |
| 2026-05-01 08:25 | 35.41683 | -6.51047 | 36176 ft | 469 kts | 18° |
| 2026-05-01 08:26 | 35.47480 | -6.47383 | 36180 ft | 470 kts | 18° |
| 2026-05-01 08:26 | 35.53244 | -6.43603 | 36178 ft | 469 kts | 19° |
| 2026-05-01 08:27 | 35.59014 | -6.39828 | 36178 ft | 469 kts | 18° |
| 2026-05-01 08:27 | 35.64771 | -6.36064 | 36176 ft | 469 kts | 19° |
| 2026-05-01 08:28 | 35.70524 | -6.32298 | 36175 ft | 469 kts | 19° |
| 2026-05-01 08:28 | 35.76280 | -6.28525 | 36176 ft | 468 kts | 18° |
| 2026-05-01 08:29 | 35.82040 | -6.24811 | 36174 ft | 465 kts | 16° |
| 2026-05-01 08:29 | 35.84979 | -6.23431 | 36173 ft | 451 kts | 6° |
| 2026-05-01 08:29 | 35.88001 | -6.22491 | 36179 ft | 447 kts | 3° |
| 2026-05-01 08:30 | 35.94063 | -6.20772 | 36183 ft | 447 kts | 3° |
| 2026-05-01 08:30 | 36.00117 | -6.19012 | 36184 ft | 447 kts | 4° |
| 2026-05-01 08:31 | 36.06173 | -6.17231 | 36187 ft | 447 kts | 4° |
| 2026-05-01 08:31 | 36.12231 | -6.15442 | 36188 ft | 447 kts | 4° |
| 2026-05-01 08:32 | 36.18281 | -6.13654 | 36185 ft | 447 kts | 4° |
| 2026-05-01 08:32 | 36.23306 | -6.12167 | 36187 ft | 447 kts | 4° |
| 2026-05-01 08:33 | 36.29349 | -6.10380 | 36182 ft | 447 kts | 4° |
| 2026-05-01 08:33 | 36.35400 | -6.08584 | 36183 ft | 447 kts | 4° |
| 2026-05-01 08:34 | 36.41439 | -6.06792 | 36181 ft | 447 kts | 4° |
| 2026-05-01 08:34 | 36.47488 | -6.04989 | 36179 ft | 447 kts | 4° |
| 2026-05-01 08:35 | 36.53529 | -6.03188 | 36173 ft | 446 kts | 4° |
| 2026-05-01 08:35 | 36.59573 | -6.01384 | 36175 ft | 446 kts | 5° |
| 2026-05-01 08:36 | 36.65608 | -5.99581 | 36171 ft | 446 kts | 5° |
| 2026-05-01 08:36 | 36.71648 | -5.97770 | 36172 ft | 446 kts | 5° |
| 2026-05-01 08:37 | 36.77682 | -5.95961 | 36170 ft | 446 kts | 5° |
| 2026-05-01 08:37 | 36.83679 | -5.94157 | 36170 ft | 446 kts | 5° |
| 2026-05-01 08:38 | 36.89718 | -5.92338 | 36177 ft | 446 kts | 5° |
| 2026-05-01 08:38 | 36.95747 | -5.90520 | 36166 ft | 446 kts | 5° |
| 2026-05-01 08:39 | 37.01781 | -5.88702 | 36166 ft | 446 kts | 6° |
| 2026-05-01 08:39 | 37.07824 | -5.86872 | 36169 ft | 447 kts | 6° |
| 2026-05-01 08:40 | 37.16891 | -5.84123 | 36174 ft | 447 kts | 6° |
| 2026-05-01 08:40 | 37.22937 | -5.82287 | 36175 ft | 447 kts | 6° |
| 2026-05-01 08:41 | 37.28993 | -5.80448 | 36175 ft | 448 kts | 6° |
| 2026-05-01 08:41 | 37.35051 | -5.78606 | 36174 ft | 448 kts | 6° |
| 2026-05-01 08:42 | 37.41114 | -5.76743 | 36172 ft | 449 kts | 8° |
| 2026-05-01 08:42 | 37.46990 | -5.73751 | 36174 ft | 460 kts | 19° |
| 2026-05-01 08:43 | 37.52742 | -5.70231 | 36178 ft | 460 kts | 19° |
| 2026-05-01 08:43 | 37.58515 | -5.66724 | 36163 ft | 460 kts | 19° |
| 2026-05-01 08:44 | 37.64284 | -5.63221 | 36169 ft | 460 kts | 20° |
| 2026-05-01 08:44 | 37.70055 | -5.59716 | 36182 ft | 460 kts | 20° |
| 2026-05-01 08:45 | 37.75822 | -5.56206 | 36189 ft | 460 kts | 20° |
| 2026-05-01 08:45 | 37.81586 | -5.52695 | 36183 ft | 460 kts | 20° |
| 2026-05-01 08:46 | 37.87352 | -5.49159 | 36177 ft | 460 kts | 20° |
| 2026-05-01 08:46 | 37.93116 | -5.45637 | 36179 ft | 460 kts | 20° |
| 2026-05-01 08:47 | 37.98879 | -5.42110 | 36180 ft | 460 kts | 20° |
| 2026-05-01 08:47 | 38.04588 | -5.38583 | 36180 ft | 459 kts | 21° |
| 2026-05-01 08:48 | 38.10336 | -5.35032 | 36177 ft | 460 kts | 20° |
| 2026-05-01 08:48 | 38.16098 | -5.31490 | 36178 ft | 459 kts | 21° |
| 2026-05-01 08:49 | 38.21883 | -5.27915 | 36176 ft | 459 kts | 21° |
| 2026-05-01 08:49 | 38.27625 | -5.24335 | 36178 ft | 459 kts | 21° |
| 2026-05-01 08:50 | 38.33376 | -5.20820 | 36173 ft | 459 kts | 21° |
| 2026-05-01 08:50 | 38.39121 | -5.17269 | 36178 ft | 459 kts | 21° |
| 2026-05-01 08:51 | 38.44825 | -5.13725 | 36179 ft | 459 kts | 21° |
| 2026-05-01 08:51 | 38.50702 | -5.10737 | 36173 ft | 450 kts | 7° |
| 2026-05-01 08:52 | 38.53824 | -5.10291 | 36175 ft | 443 kts | 355° |
| 2026-05-01 08:52 | 38.56852 | -5.10499 | 36179 ft | 441 kts | 351° |
| 2026-05-01 08:52 | 38.62956 | -5.11198 | 36180 ft | 441 kts | 351° |
| 2026-05-01 08:53 | 38.69071 | -5.11848 | 36183 ft | 442 kts | 351° |
| 2026-05-01 08:53 | 38.75247 | -5.12478 | 36182 ft | 442 kts | 351° |
| 2026-05-01 08:54 | 38.81345 | -5.13101 | 36190 ft | 443 kts | 352° |
| 2026-05-01 08:54 | 38.87488 | -5.13730 | 36187 ft | 443 kts | 352° |
| 2026-05-01 08:55 | 38.93641 | -5.14360 | 36183 ft | 443 kts | 352° |
| 2026-05-01 08:55 | 38.99823 | -5.13994 | 36181 ft | 452 kts | 10° |
| 2026-05-01 08:56 | 39.02803 | -5.12642 | 36174 ft | 458 kts | 23° |
| 2026-05-01 08:56 | 39.05560 | -5.10547 | 36179 ft | 461 kts | 31° |
| 2026-05-01 08:56 | 39.10892 | -5.05936 | 36184 ft | 462 kts | 31° |
| 2026-05-01 08:57 | 39.16291 | -5.01478 | 36183 ft | 461 kts | 30° |
| 2026-05-01 08:57 | 39.21690 | -4.97037 | 36175 ft | 461 kts | 30° |
| 2026-05-01 08:58 | 39.27087 | -4.92566 | 36182 ft | 461 kts | 30° |
| 2026-05-01 08:58 | 39.32475 | -4.88088 | 36185 ft | 461 kts | 30° |
| 2026-05-01 08:59 | 39.37862 | -4.83598 | 36181 ft | 461 kts | 31° |
| 2026-05-01 08:59 | 39.43243 | -4.79101 | 36186 ft | 461 kts | 31° |
| 2026-05-01 09:00 | 39.48628 | -4.74589 | 36189 ft | 461 kts | 31° |
| 2026-05-01 09:00 | 39.54014 | -4.70073 | 36188 ft | 461 kts | 31° |
| 2026-05-01 09:01 | 39.59396 | -4.65552 | 36178 ft | 461 kts | 31° |
| 2026-05-01 09:01 | 39.64780 | -4.61009 | 36184 ft | 461 kts | 31° |
| 2026-05-01 09:02 | 39.70163 | -4.56478 | 36178 ft | 461 kts | 31° |
| 2026-05-01 09:02 | 39.75502 | -4.51968 | 36185 ft | 461 kts | 31° |
| 2026-05-01 09:03 | 39.80913 | -4.47384 | 36188 ft | 461 kts | 31° |
| 2026-05-01 09:03 | 39.86279 | -4.42824 | 36174 ft | 461 kts | 31° |
| 2026-05-01 09:04 | 39.91603 | -4.38272 | 36195 ft | 461 kts | 31° |
| 2026-05-01 09:04 | 39.97034 | -4.33751 | 36179 ft | 459 kts | 26° |
| 2026-05-01 09:05 | 40.02740 | -4.30209 | 36188 ft | 457 kts | 22° |
| 2026-05-01 09:05 | 40.08511 | -4.26723 | 36188 ft | 457 kts | 22° |
| 2026-05-01 09:06 | 40.14274 | -4.23207 | 36190 ft | 457 kts | 22° |
| 2026-05-01 09:06 | 40.20035 | -4.19677 | 36193 ft | 457 kts | 22° |
| 2026-05-01 09:07 | 40.25787 | -4.16157 | 36190 ft | 456 kts | 22° |
| 2026-05-01 09:07 | 40.31530 | -4.12623 | 36195 ft | 455 kts | 22° |
| 2026-05-01 09:08 | 40.37260 | -4.09096 | 36197 ft | 455 kts | 22° |
| 2026-05-01 09:08 | 40.42984 | -4.05567 | 36198 ft | 454 kts | 22° |
| 2026-05-01 09:09 | 40.48701 | -4.02038 | 36205 ft | 453 kts | 22° |
| 2026-05-01 09:09 | 40.54405 | -3.98510 | 36214 ft | 453 kts | 22° |
| 2026-05-01 09:10 | 40.60060 | -3.95006 | 36221 ft | 452 kts | 22° |
| 2026-05-01 09:10 | 40.65740 | -3.91475 | 36227 ft | 451 kts | 22° |
| 2026-05-01 09:11 | 40.71412 | -3.87941 | 36233 ft | 450 kts | 22° |
| 2026-05-01 09:11 | 40.77075 | -3.84412 | 36232 ft | 450 kts | 22° |
| 2026-05-01 09:12 | 40.82760 | -3.80862 | 36228 ft | 449 kts | 22° |
| 2026-05-01 09:12 | 40.88359 | -3.77358 | 36221 ft | 449 kts | 22° |
| 2026-05-01 09:13 | 40.94000 | -3.73823 | 36208 ft | 448 kts | 22° |
| 2026-05-01 09:13 | 40.99628 | -3.70251 | 36205 ft | 448 kts | 23° |
| 2026-05-01 09:14 | 41.05293 | -3.66692 | 36197 ft | 447 kts | 22° |
| 2026-05-01 09:14 | 41.10923 | -3.63180 | 36183 ft | 447 kts | 22° |
| 2026-05-01 09:15 | 41.16528 | -3.59757 | 36187 ft | 446 kts | 20° |
| 2026-05-01 09:15 | 41.22269 | -3.56626 | 36183 ft | 446 kts | 19° |
| 2026-05-01 09:16 | 41.28014 | -3.53493 | 36189 ft | 446 kts | 19° |
| 2026-05-01 09:17 | 41.36626 | -3.48778 | 36178 ft | 446 kts | 20° |
| 2026-05-01 09:17 | 41.45237 | -3.44054 | 36177 ft | 447 kts | 20° |
| 2026-05-01 09:18 | 41.53854 | -3.39319 | 36178 ft | 447 kts | 20° |
| 2026-05-01 09:19 | 41.61510 | -3.35089 | 36175 ft | 447 kts | 20° |
| 2026-05-01 09:20 | 41.70142 | -3.30313 | 36177 ft | 448 kts | 20° |
| 2026-05-01 09:21 | 41.81683 | -3.23905 | 36179 ft | 450 kts | 20° |
| 2026-05-01 09:21 | 41.90358 | -3.19066 | 36183 ft | 451 kts | 20° |
| 2026-05-01 09:22 | 42.01958 | -3.12582 | 36183 ft | 452 kts | 20° |
| 2026-05-01 09:23 | 42.10678 | -3.07701 | 36187 ft | 453 kts | 21° |
| 2026-05-01 09:24 | 42.19412 | -3.02781 | 36186 ft | 453 kts | 21° |
| 2026-05-01 09:25 | 42.31048 | -2.96203 | 36186 ft | 454 kts | 21° |
| 2026-05-01 09:26 | 42.39785 | -2.91248 | 36188 ft | 454 kts | 21° |
| 2026-05-01 09:26 | 42.45494 | -2.87606 | 36187 ft | 455 kts | 32° |
| 2026-05-01 09:26 | 42.48000 | -2.84986 | 36195 ft | 457 kts | 40° |
| 2026-05-01 09:27 | 42.55091 | -2.76332 | 36198 ft | 458 kts | 41° |
| 2026-05-01 09:28 | 42.59846 | -2.70577 | 36200 ft | 458 kts | 40° |
| 2026-05-01 09:28 | 42.64613 | -2.64822 | 36199 ft | 460 kts | 40° |
| 2026-05-01 09:29 | 42.71782 | -2.56139 | 36202 ft | 461 kts | 41° |
| 2026-05-01 09:30 | 42.78943 | -2.47430 | 36208 ft | 463 kts | 41° |
| 2026-05-01 09:30 | 42.86122 | -2.38655 | 36204 ft | 462 kts | 41° |
| 2026-05-01 09:31 | 42.90903 | -2.32806 | 36208 ft | 461 kts | 41° |
| 2026-05-01 09:32 | 42.98045 | -2.24032 | 36207 ft | 460 kts | 41° |
| 2026-05-01 09:32 | 43.05161 | -2.15252 | 36202 ft | 459 kts | 41° |
| 2026-05-01 09:33 | 43.09909 | -2.09401 | 36195 ft | 459 kts | 41° |
| 2026-05-01 09:34 | 43.17011 | -2.00600 | 36199 ft | 459 kts | 41° |
| 2026-05-01 09:34 | 43.24103 | -1.91772 | 36199 ft | 459 kts | 41° |
| 2026-05-01 09:35 | 43.31281 | -1.83077 | 36200 ft | 459 kts | 35° |
| 2026-05-01 09:36 | 43.36756 | -1.78581 | 36202 ft | 458 kts | 30° |
| 2026-05-01 09:36 | 43.42132 | -1.73880 | 36200 ft | 458 kts | 32° |
| 2026-05-01 09:37 | 43.47476 | -1.69066 | 36200 ft | 459 kts | 33° |
| 2026-05-01 09:37 | 43.55544 | -1.61758 | 36204 ft | 466 kts | 33° |
| 2026-05-01 09:38 | 43.63677 | -1.54374 | 36204 ft | 467 kts | 33° |
| 2026-05-01 09:39 | 43.71809 | -1.46962 | 36203 ft | 467 kts | 33° |
| 2026-05-01 09:39 | 43.77219 | -1.42020 | 36207 ft | 466 kts | 33° |
| 2026-05-01 09:40 | 43.85337 | -1.34590 | 36209 ft | 466 kts | 33° |
| 2026-05-01 09:41 | 43.90747 | -1.29624 | 36211 ft | 466 kts | 33° |
| 2026-05-01 09:41 | 43.98851 | -1.22160 | 36214 ft | 466 kts | 33° |
| 2026-05-01 09:42 | 44.04209 | -1.17205 | 36213 ft | 466 kts | 33° |
| 2026-05-01 09:43 | 44.14985 | -1.07221 | 36210 ft | 465 kts | 33° |
| 2026-05-01 09:43 | 44.20375 | -1.02207 | 36207 ft | 465 kts | 33° |
| 2026-05-01 09:44 | 44.28422 | -0.94703 | 36209 ft | 465 kts | 33° |
| 2026-05-01 09:45 | 44.33806 | -0.89684 | 36208 ft | 465 kts | 33° |
| 2026-05-01 09:45 | 44.42149 | -0.82801 | 36210 ft | 466 kts | 20° |
| 2026-05-01 09:46 | 44.48252 | -0.79763 | 36214 ft | 465 kts | 19° |
| 2026-05-01 09:46 | 44.54355 | -0.76734 | 36211 ft | 466 kts | 19° |
| 2026-05-01 09:47 | 44.60460 | -0.73670 | 36227 ft | 466 kts | 19° |
| 2026-05-01 09:47 | 44.66560 | -0.70592 | 36227 ft | 466 kts | 19° |
| 2026-05-01 09:48 | 44.72651 | -0.67506 | 36229 ft | 465 kts | 19° |
| 2026-05-01 09:48 | 44.78745 | -0.64414 | 36234 ft | 465 kts | 19° |
| 2026-05-01 09:49 | 44.84835 | -0.61330 | 36232 ft | 465 kts | 19° |
| 2026-05-01 09:49 | 44.90875 | -0.58251 | 36229 ft | 465 kts | 19° |
| 2026-05-01 09:50 | 44.96958 | -0.55151 | 36233 ft | 464 kts | 19° |
| 2026-05-01 09:50 | 45.03039 | -0.52052 | 36232 ft | 464 kts | 19° |
| 2026-05-01 09:51 | 45.09107 | -0.48926 | 36229 ft | 464 kts | 19° |
| 2026-05-01 09:51 | 45.15168 | -0.45784 | 36236 ft | 464 kts | 19° |
| 2026-05-01 09:52 | 45.21236 | -0.42658 | 36233 ft | 464 kts | 19° |
| 2026-05-01 09:52 | 45.27311 | -0.39523 | 36241 ft | 468 kts | 19° |
| 2026-05-01 09:53 | 45.33466 | -0.36337 | 36244 ft | 472 kts | 19° |
| 2026-05-01 09:53 | 45.39635 | -0.33140 | 36247 ft | 472 kts | 18° |
| 2026-05-01 09:54 | 45.45801 | -0.29934 | 36249 ft | 472 kts | 19° |
| 2026-05-01 09:54 | 45.51962 | -0.26724 | 36257 ft | 471 kts | 18° |
| 2026-05-01 09:55 | 45.58115 | -0.23508 | 36261 ft | 471 kts | 18° |
| 2026-05-01 09:55 | 45.64269 | -0.20285 | 36257 ft | 470 kts | 18° |
| 2026-05-01 09:56 | 45.70413 | -0.17061 | 36258 ft | 470 kts | 18° |
| 2026-05-01 09:56 | 45.76557 | -0.13829 | 36259 ft | 470 kts | 18° |
| 2026-05-01 09:57 | 45.82696 | -0.10597 | 36253 ft | 470 kts | 18° |
| 2026-05-01 09:57 | 45.88790 | -0.07376 | 36250 ft | 470 kts | 18° |
| 2026-05-01 09:58 | 45.94932 | -0.04122 | 36251 ft | 470 kts | 18° |
| 2026-05-01 09:58 | 46.01060 | -0.00866 | 36250 ft | 470 kts | 18° |
| 2026-05-01 09:59 | 46.07187 | 0.02401 | 36247 ft | 469 kts | 18° |
| 2026-05-01 09:59 | 46.13309 | 0.05677 | 36248 ft | 469 kts | 18° |
| 2026-05-01 10:00 | 46.19425 | 0.08946 | 36248 ft | 469 kts | 18° |
| 2026-05-01 10:00 | 46.25543 | 0.12225 | 36253 ft | 469 kts | 18° |
| 2026-05-01 10:01 | 46.31653 | 0.15508 | 36255 ft | 468 kts | 18° |
| 2026-05-01 10:01 | 46.37753 | 0.18792 | 36261 ft | 468 kts | 18° |
| 2026-05-01 10:02 | 46.43857 | 0.22087 | 36253 ft | 468 kts | 18° |
| 2026-05-01 10:02 | 46.49950 | 0.25384 | 36256 ft | 467 kts | 18° |
| 2026-05-01 10:03 | 46.56037 | 0.28687 | 36264 ft | 467 kts | 18° |
| 2026-05-01 10:03 | 46.62274 | 0.31107 | 36261 ft | 464 kts | 10° |
| 2026-05-01 10:04 | 46.68597 | 0.33029 | 36258 ft | 464 kts | 10° |
| 2026-05-01 10:04 | 46.74874 | 0.34952 | 36261 ft | 464 kts | 10° |
| 2026-05-01 10:05 | 46.81188 | 0.36896 | 36253 ft | 464 kts | 10° |
| 2026-05-01 10:05 | 46.87509 | 0.38848 | 36256 ft | 464 kts | 10° |
| 2026-05-01 10:06 | 46.93829 | 0.40799 | 36258 ft | 465 kts | 11° |
| 2026-05-01 10:06 | 46.99134 | 0.42441 | 36254 ft | 465 kts | 11° |
| 2026-05-01 10:07 | 47.05466 | 0.44392 | 36261 ft | 466 kts | 9° |
| 2026-05-01 10:07 | 47.11824 | 0.44425 | 36243 ft | 455 kts | 350° |
| 2026-05-01 10:08 | 47.21196 | 0.42088 | 36252 ft | 456 kts | 349° |
| 2026-05-01 10:09 | 47.27439 | 0.40553 | 36245 ft | 449 kts | 350° |
| 2026-05-01 10:09 | 47.33619 | 0.39042 | 35915 ft | 452 kts | 350° |
| 2026-05-01 10:09 | 47.36721 | 0.38283 | 35428 ft | 451 kts | 350° |
| 2026-05-01 10:10 | 47.39823 | 0.37522 | 34800 ft | 451 kts | 351° |
| 2026-05-01 10:10 | 47.42924 | 0.36759 | 34121 ft | 453 kts | 351° |
| 2026-05-01 10:10 | 47.49154 | 0.35225 | 32556 ft | 456 kts | 351° |
| 2026-05-01 10:11 | 47.52297 | 0.34447 | 31791 ft | 460 kts | 351° |
| 2026-05-01 10:11 | 47.55462 | 0.33660 | 31000 ft | 462 kts | 352° |
| 2026-05-01 10:11 | 47.58637 | 0.32871 | 30217 ft | 464 kts | 352° |
| 2026-05-01 10:11 | 47.61831 | 0.32076 | 29299 ft | 467 kts | 352° |
| 2026-05-01 10:12 | 47.65040 | 0.31277 | 28407 ft | 468 kts | 352° |
| 2026-05-01 10:12 | 47.68262 | 0.30474 | 27490 ft | 471 kts | 352° |
| 2026-05-01 10:12 | 47.74773 | 0.28888 | 25611 ft | 482 kts | 354° |
| 2026-05-01 10:13 | 47.78113 | 0.28743 | 24782 ft | 479 kts | 6° |
| 2026-05-01 10:13 | 47.81362 | 0.29623 | 24115 ft | 476 kts | 19° |
| 2026-05-01 10:13 | 47.84436 | 0.31514 | 23742 ft | 479 kts | 31° |
| 2026-05-01 10:14 | 47.89894 | 0.37074 | 23143 ft | 473 kts | 38° |
| 2026-05-01 10:14 | 47.92554 | 0.39932 | 22862 ft | 472 kts | 38° |
| 2026-05-01 10:14 | 47.95196 | 0.42730 | 22572 ft | 456 kts | 38° |
| 2026-05-01 10:14 | 47.97743 | 0.45404 | 22289 ft | 439 kts | 38° |
| 2026-05-01 10:15 | 48.00205 | 0.47946 | 22034 ft | 423 kts | 38° |
| 2026-05-01 10:15 | 48.02581 | 0.50404 | 21779 ft | 408 kts | 38° |
| 2026-05-01 10:15 | 48.04870 | 0.52786 | 21510 ft | 395 kts | 38° |
| 2026-05-01 10:15 | 48.07091 | 0.55110 | 21252 ft | 385 kts | 38° |
| 2026-05-01 10:16 | 48.09278 | 0.57413 | 20989 ft | 384 kts | 38° |
| 2026-05-01 10:16 | 48.11457 | 0.59725 | 20732 ft | 383 kts | 39° |
| 2026-05-01 10:16 | 48.15028 | 0.63498 | 20334 ft | 382 kts | 38° |
| 2026-05-01 11:32 | 48.15671 | 0.64174 | 20273 ft | 380 kts | 38° |
| 2026-05-01 11:32 | 48.17833 | 0.66447 | 20028 ft | 378 kts | 39° |
| 2026-05-01 11:32 | 48.19968 | 0.68740 | 19786 ft | 377 kts | 39° |
| 2026-05-01 11:32 | 48.22073 | 0.70989 | 19546 ft | 376 kts | 39° |
| 2026-05-01 11:33 | 48.24231 | 0.73287 | 19305 ft | 375 kts | 39° |
| 2026-05-01 11:33 | 48.26329 | 0.75525 | 19066 ft | 374 kts | 39° |
| 2026-05-01 11:33 | 48.28448 | 0.77779 | 18830 ft | 373 kts | 39° |
| 2026-05-01 11:33 | 48.30558 | 0.80029 | 18506 ft | 371 kts | 39° |
| 2026-05-01 11:34 | 48.32657 | 0.82271 | 18062 ft | 370 kts | 39° |
| 2026-05-01 11:34 | 48.34607 | 0.84758 | 17594 ft | 364 kts | 52° |
| 2026-05-01 11:34 | 48.35974 | 0.87907 | 17162 ft | 358 kts | 65° |
| 2026-05-01 11:34 | 48.37092 | 0.91226 | 16739 ft | 357 kts | 67° |
| 2026-05-01 11:35 | 48.37834 | 0.93455 | 16453 ft | 354 kts | 66° |
| 2026-05-01 11:35 | 48.38790 | 0.96272 | 16093 ft | 349 kts | 66° |
| 2026-05-01 11:35 | 48.39902 | 0.99529 | 15680 ft | 349 kts | 66° |
| 2026-05-01 11:35 | 48.41015 | 1.02765 | 15286 ft | 348 kts | 66° |
| 2026-05-01 11:36 | 48.42180 | 1.06143 | 14944 ft | 383 kts | 65° |
| 2026-05-01 11:36 | 48.43449 | 1.09861 | 14607 ft | 412 kts | 65° |
| 2026-05-01 11:36 | 48.44758 | 1.13722 | 14264 ft | 413 kts | 65° |
| 2026-05-01 11:36 | 48.46058 | 1.17567 | 13897 ft | 412 kts | 65° |
| 2026-05-01 11:37 | 48.47353 | 1.21415 | 13503 ft | 411 kts | 65° |
| 2026-05-01 11:37 | 48.48642 | 1.25252 | 13116 ft | 410 kts | 65° |
| 2026-05-01 11:37 | 48.49492 | 1.27787 | 12864 ft | 409 kts | 65° |
| 2026-05-01 11:37 | 48.50770 | 1.31609 | 12436 ft | 403 kts | 65° |
| 2026-05-01 11:38 | 48.52018 | 1.35343 | 11902 ft | 393 kts | 65° |
| 2026-05-01 11:38 | 48.52992 | 1.39076 | 11578 ft | 374 kts | 78° |
| 2026-05-01 11:38 | 48.53297 | 1.42859 | 11345 ft | 355 kts | 90° |
| 2026-05-01 11:38 | 48.53170 | 1.46492 | 11150 ft | 338 kts | 101° |
| 2026-05-01 11:39 | 48.52601 | 1.49845 | 10971 ft | 324 kts | 104° |
| 2026-05-01 11:39 | 48.52578 | 1.53177 | 10793 ft | 316 kts | 79° |
| 2026-05-01 11:39 | 48.53369 | 1.56217 | 10655 ft | 308 kts | 63° |
| 2026-05-01 11:39 | 48.54615 | 1.58786 | 10509 ft | 300 kts | 49° |
| 2026-05-01 11:40 | 48.56158 | 1.60847 | 10378 ft | 295 kts | 41° |
| 2026-05-01 11:40 | 48.57770 | 1.62777 | 10250 ft | 296 kts | 41° |
| 2026-05-01 11:40 | 48.59373 | 1.64720 | 10202 ft | 295 kts | 42° |
| 2026-05-01 11:40 | 48.60958 | 1.66686 | 10215 ft | 295 kts | 42° |
| 2026-05-01 11:41 | 48.62538 | 1.68668 | 10226 ft | 295 kts | 42° |
| 2026-05-01 11:41 | 48.64113 | 1.70661 | 10236 ft | 295 kts | 42° |
| 2026-05-01 11:41 | 48.65680 | 1.72657 | 10246 ft | 294 kts | 43° |
| 2026-05-01 11:41 | 48.67224 | 1.74626 | 9992 ft | 288 kts | 43° |
| 2026-05-01 11:42 | 48.68750 | 1.76572 | 9621 ft | 286 kts | 43° |
| 2026-05-01 11:42 | 48.70253 | 1.78509 | 9341 ft | 280 kts | 43° |
| 2026-05-01 11:42 | 48.71711 | 1.80391 | 9174 ft | 271 kts | 43° |
| 2026-05-01 11:42 | 48.73118 | 1.82207 | 9034 ft | 260 kts | 43° |
| 2026-05-01 11:43 | 48.74468 | 1.83946 | 8900 ft | 250 kts | 43° |
| 2026-05-01 11:43 | 48.75786 | 1.85633 | 8626 ft | 247 kts | 43° |
| 2026-05-01 11:43 | 48.77096 | 1.87308 | 8297 ft | 246 kts | 43° |
| 2026-05-01 11:44 | 48.79822 | 1.90805 | 7445 ft | 261 kts | 43° |
| 2026-05-01 11:44 | 48.81216 | 1.92601 | 6976 ft | 265 kts | 43° |
| 2026-05-01 11:44 | 48.82624 | 1.94418 | 6564 ft | 265 kts | 42° |
| 2026-05-01 11:44 | 48.84019 | 1.96195 | 6287 ft | 259 kts | 43° |
| 2026-05-01 11:45 | 48.85373 | 1.97926 | 6054 ft | 251 kts | 42° |
| 2026-05-01 11:45 | 48.86694 | 1.99620 | 5847 ft | 245 kts | 43° |
| 2026-05-01 11:45 | 48.87981 | 2.01277 | 5651 ft | 240 kts | 43° |
| 2026-05-01 11:45 | 48.89232 | 2.02890 | 5432 ft | 237 kts | 43° |
| 2026-05-01 11:46 | 48.90497 | 2.04528 | 5153 ft | 236 kts | 42° |
| 2026-05-01 11:46 | 48.91750 | 2.06147 | 4845 ft | 236 kts | 42° |
| 2026-05-01 11:46 | 48.93001 | 2.07767 | 4500 ft | 236 kts | 42° |
| 2026-05-01 11:46 | 48.94246 | 2.09377 | 4188 ft | 235 kts | 42° |
| 2026-05-01 11:47 | 48.95472 | 2.10965 | 3962 ft | 233 kts | 42° |
| 2026-05-01 11:47 | 48.96722 | 2.12583 | 3945 ft | 234 kts | 42° |
| 2026-05-01 11:47 | 48.97946 | 2.14170 | 3954 ft | 234 kts | 42° |
| 2026-05-01 11:47 | 48.99182 | 2.15779 | 3959 ft | 234 kts | 42° |
| 2026-05-01 11:48 | 49.00298 | 2.17542 | 3958 ft | 231 kts | 62° |
| 2026-05-01 11:48 | 49.00834 | 2.19844 | 3977 ft | 228 kts | 82° |
| 2026-05-01 11:48 | 49.00996 | 2.22203 | 3955 ft | 226 kts | 89° |
| 2026-05-01 11:48 | 49.01055 | 2.24580 | 3911 ft | 218 kts | 90° |
| 2026-05-01 11:49 | 49.01115 | 2.26868 | 3675 ft | 214 kts | 89° |
| 2026-05-01 11:49 | 49.01214 | 2.29081 | 3402 ft | 210 kts | 88° |
| 2026-05-01 11:49 | 49.01325 | 2.31223 | 3208 ft | 195 kts | 87° |
| 2026-05-01 11:49 | 49.01434 | 2.33242 | 2983 ft | 189 kts | 88° |
| 2026-05-01 11:50 | 49.01539 | 2.35207 | 2735 ft | 185 kts | 87° |
| 2026-05-01 11:50 | 49.01645 | 2.37168 | 2445 ft | 185 kts | 87° |
| 2026-05-01 11:50 | 49.01749 | 2.39099 | 2184 ft | 181 kts | 87° |
| 2026-05-01 11:50 | 49.01851 | 2.40995 | 1944 ft | 178 kts | 86° |
| 2026-05-01 11:51 | 49.01948 | 2.42812 | 1729 ft | 166 kts | 87° |
| 2026-05-01 11:51 | 49.02040 | 2.44516 | 1510 ft | 153 kts | 87° |
| 2026-05-01 11:51 | 49.02120 | 2.46007 | 1244 ft | 134 kts | 87° |
| 2026-05-01 11:51 | 49.02196 | 2.47416 | 1062 ft | 133 kts | 86° |
| 2026-05-01 11:52 | 49.02271 | 2.48822 | 895 ft | 133 kts | 86° |
| 2026-05-01 11:52 | 49.02346 | 2.50214 | 704 ft | 132 kts | 85° |
| 2026-05-01 11:52 | 49.02423 | 2.51605 | 519 ft | 131 kts | 84° |
| 2026-05-01 11:52 | 49.02505 | 2.52983 | 392 ft | 127 kts | 86° |
| 2026-05-01 11:53 | 49.02560 | 2.54109 | 380 ft | 79 kts | 85° |
| 2026-05-01 11:53 | 49.02592 | 2.54703 | 378 ft | 49 kts | 85° |
| 2026-05-01 11:53 | 49.02608 | 2.55019 | 380 ft | 17 kts | 85° |
| 2026-05-01 11:53 | 49.02595 | 2.55209 | 383 ft | 20 kts | 114° |
| 2026-05-01 11:54 | 49.02543 | 2.55390 | 374 ft | 2 kts | 113° |
| 2026-05-01 11:54 | 49.01579 | 2.54437 | 369 ft | 0 kts | 43° |
| 2026-05-01 11:57 | 49.01571 | 2.54576 | 371 ft | 0 kts | 249° |